Time;durP1;ratioP1;P1;durP2;ratioP2;P2;SDS_P1;SDS_P2;PMS_P1;PMS_P2;Temp;Humidity;BMP_temperature;BMP_pressure;BME280_temperature;BME280_humidity;BME280_pressure;Samples;Min_cycle;Max_cycle;Signal;HPM_P1;HPM_P2
2022/04/10 00:00:15;;;;;;;4.15;2.60;;;;;;;;;;4974474;28;20029;-72
2022/04/10 00:02:42;;;;;;;4.03;2.22;;;;;;;;;;4974818;28;20027;-72
2022/04/10 00:05:08;;;;;;;5.57;2.63;;;;;;;;;;4974210;28;20027;-72
2022/04/10 00:07:34;;;;;;;5.78;2.83;;;;;;;;;;4956026;28;20030;-71
2022/04/10 00:10:00;;;;;;;4.50;2.00;;;;;;;;;;4974355;28;20324;-71
2022/04/10 00:12:26;;;;;;;6.28;2.15;;;;;;;;;;4956374;28;20489;-71
2022/04/10 00:14:52;;;;;;;2.20;1.58;;;;;;;;;;4974158;28;20069;-71
2022/04/10 00:17:18;;;;;;;7.82;2.80;;;;;;;;;;4973702;28;20066;-70
2022/04/10 00:19:45;;;;;;;3.50;1.95;;;;;;;;;;4974075;28;20543;-70
2022/04/10 00:22:12;;;;;;;2.05;1.75;;;;;;;;;;4974127;28;20026;-72
2022/04/10 00:24:38;;;;;;;4.70;2.00;;;;;;;;;;4974831;28;20362;-71
2022/04/10 00:27:05;;;;;;;3.65;1.85;;;;;;;;;;4973716;28;20031;-70
2022/04/10 00:29:31;;;;;;;4.57;2.15;;;;;;;;;;4973942;28;20046;-72
2022/04/10 00:31:57;;;;;;;9.88;5.38;;;;;;;;;;4973575;28;20030;-71
2022/04/10 00:34:23;;;;;;;5.68;2.67;;;;;;;;;;4956042;28;20105;-72
2022/04/10 00:36:49;;;;;;;4.05;2.95;;;;;;;;;;4973821;28;20023;-71
2022/04/10 00:39:15;;;;;;;4.63;1.65;;;;;;;;;;4972950;28;20018;-71
2022/04/10 00:41:41;;;;;;;5.07;2.20;;;;;;;;;;4956296;28;20038;-72
2022/04/10 00:44:11;;;;;;;7.28;2.60;;;;;;;;;;4973380;28;20038;-72
2022/04/10 00:46:38;;;;;;;6.20;2.13;;;;;;;;;;4973171;28;20059;-72
2022/04/10 00:49:04;;;;;;;6.45;2.25;;;;;;;;;;4973099;28;20370;-72
2022/04/10 00:51:52;;;;;;;2.13;1.48;;;;;;;;;;4973818;28;20093;-72
2022/04/10 00:54:20;;;;;;;4.32;2.30;;;;;;;;;;4973944;28;20018;-71
2022/04/10 00:56:46;;;;;;;3.80;2.38;;;;;;;;;;4956127;28;20041;-72
2022/04/10 00:59:12;;;;;;;7.75;3.00;;;;;;;;;;4973345;28;20081;-72
2022/04/10 01:01:40;;;;;;;6.40;2.15;;;;;;;;;;4957163;28;20034;-73
2022/04/10 01:04:07;;;;;;;7.22;2.35;;;;;;;;;;4972940;28;20022;-71
2022/04/10 01:06:33;;;;;;;2.70;1.45;;;;;;;;;;4972986;28;20308;-71
2022/04/10 01:08:59;;;;;;;3.30;1.40;;;;;;;;;;4972628;28;20436;-72
2022/04/10 01:11:25;;;;;;;4.10;1.60;;;;;;;;;;4973055;28;20058;-71
2022/04/10 01:13:53;;;;;;;5.45;2.53;;;;;;;;;;4972888;28;20026;-71
2022/04/10 01:16:20;;;;;;;3.70;2.03;;;;;;;;;;4973164;28;20098;-72
2022/04/10 01:18:46;;;;;;;8.27;2.92;;;;;;;;;;4948023;28;20481;-72
2022/04/10 01:21:14;;;;;;;3.33;1.48;;;;;;;;;;4972551;28;20046;-72
2022/04/10 01:23:40;;;;;;;5.63;2.00;;;;;;;;;;4972387;28;20495;-72
2022/04/10 01:26:06;;;;;;;2.65;1.65;;;;;;;;;;4972076;28;20031;-72
2022/04/10 01:28:32;;;;;;;5.35;1.88;;;;;;;;;;4965057;28;20038;-72
2022/04/10 01:30:58;;;;;;;4.85;2.03;;;;;;;;;;4972639;28;20023;-73
2022/04/10 01:33:24;;;;;;;5.13;1.88;;;;;;;;;;4955137;28;20019;-73
2022/04/10 01:35:50;;;;;;;3.60;2.05;;;;;;;;;;4971715;28;20380;-72
2022/04/10 01:38:16;;;;;;;4.85;2.00;;;;;;;;;;4971512;28;20378;-72
2022/04/10 01:40:42;;;;;;;3.70;1.92;;;;;;;;;;4972573;28;20571;-71
2022/04/10 01:43:08;;;;;;;6.35;1.85;;;;;;;;;;4972444;28;20102;-71
2022/04/10 01:45:35;;;;;;;4.13;1.95;;;;;;;;;;4972245;28;20050;-71
2022/04/10 01:48:01;;;;;;;3.58;2.03;;;;;;;;;;4971586;28;20030;-73
2022/04/10 01:50:26;;;;;;;4.75;2.58;;;;;;;;;;4972306;28;20046;-72
2022/04/10 01:52:52;;;;;;;4.30;2.00;;;;;;;;;;4972312;28;20093;-72
2022/04/10 01:55:18;;;;;;;4.22;1.85;;;;;;;;;;4972368;28;20030;-72
2022/04/10 01:57:44;;;;;;;4.38;2.55;;;;;;;;;;4971870;28;20026;-72
2022/04/10 02:00:11;;;;;;;6.53;2.15;;;;;;;;;;4972293;28;20080;-72
2022/04/10 02:02:37;;;;;;;5.65;2.58;;;;;;;;;;4972167;28;20038;-72
2022/04/10 02:05:03;;;;;;;4.95;2.08;;;;;;;;;;4972419;28;20074;-72
2022/04/10 02:07:29;;;;;;;5.65;2.15;;;;;;;;;;4971487;28;20033;-73
2022/04/10 02:09:54;;;;;;;3.83;1.65;;;;;;;;;;4972226;28;20031;-73
2022/04/10 02:12:20;;;;;;;3.83;1.75;;;;;;;;;;4972373;28;20117;-73
2022/04/10 02:14:46;;;;;;;5.40;1.90;;;;;;;;;;4972413;28;20023;-72
2022/04/10 02:17:12;;;;;;;2.58;1.60;;;;;;;;;;4956078;28;20014;-73
2022/04/10 02:19:38;;;;;;;6.63;2.25;;;;;;;;;;4956159;28;20481;-73
2022/04/10 02:22:04;;;;;;;5.43;1.60;;;;;;;;;;4955461;28;20480;-73
2022/04/10 02:24:31;;;;;;;5.95;2.20;;;;;;;;;;4954617;28;20019;-73
2022/04/10 02:26:57;;;;;;;3.72;1.63;;;;;;;;;;4972194;28;20102;-71
2022/04/10 02:29:23;;;;;;;4.43;1.58;;;;;;;;;;4972087;28;20031;-72
2022/04/10 02:31:49;;;;;;;6.82;1.90;;;;;;;;;;4954966;28;20023;-72
2022/04/10 02:34:15;;;;;;;3.60;1.95;;;;;;;;;;4971930;28;20026;-73
2022/04/10 02:36:41;;;;;;;2.78;1.63;;;;;;;;;;4971725;28;20154;-72
2022/04/10 02:39:07;;;;;;;8.27;2.20;;;;;;;;;;4971338;28;20105;-73
2022/04/10 02:41:33;;;;;;;4.65;1.60;;;;;;;;;;4971871;28;20036;-71
2022/04/10 02:43:59;;;;;;;3.90;1.25;;;;;;;;;;4971920;28;20035;-72
2022/04/10 02:46:25;;;;;;;3.47;1.77;;;;;;;;;;4954656;28;20025;-72
2022/04/10 02:48:51;;;;;;;4.00;1.70;;;;;;;;;;4975813;28;20368;-72
2022/04/10 02:51:17;;;;;;;9.00;2.20;;;;;;;;;;4958073;28;20027;-72
2022/04/10 02:53:43;;;;;;;3.95;1.65;;;;;;;;;;4975584;28;20046;-72
2022/04/10 02:56:09;;;;;;;7.28;1.77;;;;;;;;;;4958563;28;20476;-72
2022/04/10 02:58:35;;;;;;;4.50;1.48;;;;;;;;;;4957298;28;20019;-71
2022/04/10 03:01:01;;;;;;;5.75;1.88;;;;;;;;;;4975387;28;20030;-71
2022/04/10 03:03:27;;;;;;;2.95;1.50;;;;;;;;;;4975188;28;20027;-71
2022/04/10 03:05:53;;;;;;;5.30;1.60;;;;;;;;;;4975077;28;20066;-72
2022/04/10 03:08:20;;;;;;;6.25;1.45;;;;;;;;;;4956852;28;20077;-72
2022/04/10 03:10:46;;;;;;;4.75;1.45;;;;;;;;;;4975432;28;20038;-72
2022/04/10 03:13:12;;;;;;;2.75;1.52;;;;;;;;;;4957870;28;20026;-71
2022/04/10 03:15:38;;;;;;;7.63;1.92;;;;;;;;;;4975183;28;20098;-71
2022/04/10 03:18:04;;;;;;;5.03;1.90;;;;;;;;;;4974391;28;20484;-72
2022/04/10 03:20:30;;;;;;;6.22;1.88;;;;;;;;;;4974515;28;20396;-72
2022/04/10 03:22:56;;;;;;;8.15;1.98;;;;;;;;;;4957607;28;20102;-71
2022/04/10 03:25:22;;;;;;;5.75;2.00;;;;;;;;;;4975103;28;20030;-72
2022/04/10 03:27:48;;;;;;;6.82;1.90;;;;;;;;;;4974073;28;20107;-71
2022/04/10 03:30:14;;;;;;;6.65;1.70;;;;;;;;;;4957645;28;20030;-72
2022/04/10 03:32:41;;;;;;;5.63;1.70;;;;;;;;;;4975017;28;20027;-72
2022/04/10 03:35:07;;;;;;;6.95;2.20;;;;;;;;;;4974788;28;20030;-71
2022/04/10 03:37:33;;;;;;;4.30;1.95;;;;;;;;;;4974184;28;20023;-71
2022/04/10 03:39:59;;;;;;;7.10;2.17;;;;;;;;;;4974653;28;20023;-72
2022/04/10 03:42:25;;;;;;;5.43;2.17;;;;;;;;;;4974467;28;20117;-72
2022/04/10 03:44:51;;;;;;;10.07;2.08;;;;;;;;;;4975488;28;20042;-72
2022/04/10 03:47:17;;;;;;;6.97;2.03;;;;;;;;;;4973688;28;20093;-72
2022/04/10 03:49:43;;;;;;;6.05;1.73;;;;;;;;;;4974300;28;20026;-71
2022/04/10 03:52:09;;;;;;;6.15;2.10;;;;;;;;;;4974622;28;20023;-73
2022/04/10 03:54:35;;;;;;;7.47;2.70;;;;;;;;;;4976213;28;20062;-72
2022/04/10 03:57:01;;;;;;;6.03;1.88;;;;;;;;;;4979057;28;20025;-72
2022/04/10 03:59:27;;;;;;;4.72;1.58;;;;;;;;;;4976841;28;20023;-73
2022/04/10 04:01:53;;;;;;;6.63;1.88;;;;;;;;;;4978818;28;20054;-73
2022/04/10 04:04:20;;;;;;;4.82;1.85;;;;;;;;;;4956822;28;20041;-71
2022/04/10 04:06:46;;;;;;;7.00;2.40;;;;;;;;;;4974394;28;20041;-72
2022/04/10 04:09:12;;;;;;;7.80;2.42;;;;;;;;;;4973534;28;20026;-72
2022/04/10 04:11:38;;;;;;;5.85;2.40;;;;;;;;;;4956584;28;20409;-72
2022/04/10 04:14:04;;;;;;;8.00;2.63;;;;;;;;;;4956694;28;20023;-72
2022/04/10 04:16:30;;;;;;;6.88;1.90;;;;;;;;;;4973742;28;20074;-72
2022/04/10 04:18:56;;;;;;;8.15;1.95;;;;;;;;;;4973212;28;20420;-72
2022/04/10 04:21:22;;;;;;;9.43;2.00;;;;;;;;;;4973984;28;20477;-72
2022/04/10 04:23:48;;;;;;;5.22;2.05;;;;;;;;;;4973588;28;20089;-73
2022/04/10 04:26:15;;;;;;;5.97;2.05;;;;;;;;;;4956369;28;20018;-73
2022/04/10 04:28:40;;;;;;;8.05;2.28;;;;;;;;;;4972869;28;20051;-73
2022/04/10 04:31:06;;;;;;;5.72;2.10;;;;;;;;;;4956530;28;20117;-73
2022/04/10 04:33:32;;;;;;;7.60;2.55;;;;;;;;;;4956205;28;20234;-73
2022/04/10 04:35:58;;;;;;;8.98;3.78;;;;;;;;;;4956312;28;20437;-72
2022/04/10 04:38:24;;;;;;;17.45;3.13;;;;;;;;;;4972681;28;20031;-73
2022/04/10 04:40:50;;;;;;;8.20;2.58;;;;;;;;;;4973600;28;20038;-73
2022/04/10 04:43:16;;;;;;;8.10;3.15;;;;;;;;;;4973723;28;20042;-72
2022/04/10 04:45:42;;;;;;;5.75;2.42;;;;;;;;;;4973340;28;20034;-71
2022/04/10 04:48:08;;;;;;;5.65;2.85;;;;;;;;;;4972576;28;20023;-72
2022/04/10 04:50:34;;;;;;;9.27;2.25;;;;;;;;;;4955604;28;20493;-72
2022/04/10 04:53:00;;;;;;;8.27;2.75;;;;;;;;;;4973283;28;20543;-72
2022/04/10 04:55:26;;;;;;;7.85;2.47;;;;;;;;;;4973252;28;20073;-72
2022/04/10 04:57:52;;;;;;;7.63;2.63;;;;;;;;;;4954843;28;20023;-72
2022/04/10 05:00:19;;;;;;;7.68;2.15;;;;;;;;;;4972837;28;20019;-71
2022/04/10 05:02:45;;;;;;;4.30;2.28;;;;;;;;;;4973041;28;20034;-71
2022/04/10 05:05:12;;;;;;;4.30;1.50;;;;;;;;;;4955809;28;20034;-72
2022/04/10 05:07:38;;;;;;;12.55;2.17;;;;;;;;;;4972035;28;20524;-72
2022/04/10 05:10:04;;;;;;;4.80;1.90;;;;;;;;;;4972880;28;20098;-73
2022/04/10 05:12:32;;;;;;;3.25;1.50;;;;;;;;;;4955254;28;20023;-71
2022/04/10 05:14:59;;;;;;;6.28;1.85;;;;;;;;;;4972603;28;20036;-71
2022/04/10 05:17:26;;;;;;;7.47;1.67;;;;;;;;;;4972572;28;20037;-72
2022/04/10 05:19:52;;;;;;;6.57;2.22;;;;;;;;;;4972681;28;20042;-71
2022/04/10 05:22:18;;;;;;;5.20;2.10;;;;;;;;;;4972448;28;20023;-72
2022/04/10 05:24:44;;;;;;;7.38;2.08;;;;;;;;;;4972779;28;20111;-72
2022/04/10 05:27:10;;;;;;;8.50;2.60;;;;;;;;;;4954814;28;20101;-71
2022/04/10 05:29:37;;;;;;;9.73;1.98;;;;;;;;;;4952856;28;20031;-71
2022/04/10 05:32:03;;;;;;;7.78;1.90;;;;;;;;;;4951939;28;20106;-71
2022/04/10 05:34:29;;;;;;;3.80;1.75;;;;;;;;;;4972207;28;20074;-70
2022/04/10 05:36:55;;;;;;;4.75;2.47;;;;;;;;;;4972609;28;20201;-70
2022/04/10 05:39:20;;;;;;;6.50;1.90;;;;;;;;;;4954524;28;20025;-70
2022/04/10 05:41:46;;;;;;;7.97;1.80;;;;;;;;;;4972489;28;20085;-70
2022/04/10 05:44:12;;;;;;;3.78;1.80;;;;;;;;;;4972075;28;20512;-69
2022/04/10 05:46:38;;;;;;;7.95;1.95;;;;;;;;;;4955081;28;20079;-70
2022/04/10 05:49:06;;;;;;;5.50;1.85;;;;;;;;;;4954535;28;20452;-70
2022/04/10 05:51:32;;;;;;;6.03;1.80;;;;;;;;;;4972442;28;20089;-70
2022/04/10 05:53:58;;;;;;;6.95;2.13;;;;;;;;;;4970230;28;20027;-70
2022/04/10 05:56:24;;;;;;;7.97;2.35;;;;;;;;;;4973992;28;20023;-71
2022/04/10 05:58:50;;;;;;;3.33;1.75;;;;;;;;;;4970890;28;20049;-71
2022/04/10 06:01:16;;;;;;;9.05;1.90;;;;;;;;;;4975910;28;20520;-70
2022/04/10 06:03:42;;;;;;;6.97;2.47;;;;;;;;;;4968880;28;20476;-70
2022/04/10 06:06:08;;;;;;;7.43;1.85;;;;;;;;;;4974438;28;20031;-70
2022/04/10 06:08:34;;;;;;;5.40;1.77;;;;;;;;;;4971993;28;20031;-70
2022/04/10 06:10:59;;;;;;;7.65;2.00;;;;;;;;;;4990337;28;20030;-70
2022/04/10 06:13:25;;;;;;;8.25;2.08;;;;;;;;;;4989957;28;20025;-69
2022/04/10 06:15:51;;;;;;;9.77;2.47;;;;;;;;;;4990152;28;20035;-69
2022/04/10 06:18:17;;;;;;;5.85;1.92;;;;;;;;;;4989370;28;20014;-71
2022/04/10 06:20:43;;;;;;;7.85;2.78;;;;;;;;;;4989162;28;20023;-69
2022/04/10 06:23:09;;;;;;;6.35;2.35;;;;;;;;;;4992504;28;20068;-70
2022/04/10 06:25:36;;;;;;;4.60;1.95;;;;;;;;;;4993746;28;20026;-69
2022/04/10 06:28:02;;;;;;;6.68;2.50;;;;;;;;;;4957571;28;20019;-71
2022/04/10 06:30:28;;;;;;;8.32;2.55;;;;;;;;;;4973391;28;20117;-70
2022/04/10 06:32:54;;;;;;;5.80;2.47;;;;;;;;;;4975946;28;20404;-70
2022/04/10 06:35:20;;;;;;;7.38;1.80;;;;;;;;;;4958417;28;20023;-69
2022/04/10 06:37:46;;;;;;;10.07;2.58;;;;;;;;;;4975062;28;20027;-70
2022/04/10 06:40:12;;;;;;;4.88;2.08;;;;;;;;;;4959721;28;20026;-71
2022/04/10 06:42:40;;;;;;;9.73;2.15;;;;;;;;;;4974638;28;20477;-70
2022/04/10 06:45:06;;;;;;;9.95;2.50;;;;;;;;;;4958089;28;20030;-70
2022/04/10 06:47:32;;;;;;;3.25;1.80;;;;;;;;;;4957242;28;20488;-71
2022/04/10 06:49:59;;;;;;;9.90;3.10;;;;;;;;;;4975661;28;20027;-70
2022/04/10 06:52:25;;;;;;;6.32;2.00;;;;;;;;;;4974867;28;20023;-70
2022/04/10 06:54:51;;;;;;;4.43;2.03;;;;;;;;;;4975271;28;20114;-69
2022/04/10 06:57:17;;;;;;;9.05;2.60;;;;;;;;;;4979484;28;20039;-71
2022/04/10 06:59:43;;;;;;;4.95;1.90;;;;;;;;;;4959975;28;20389;-69
2022/04/10 07:02:09;;;;;;;6.95;1.85;;;;;;;;;;4957827;28;20019;-71
2022/04/10 07:04:35;;;;;;;7.30;2.50;;;;;;;;;;4976114;28;20038;-76
2022/04/10 07:07:01;;;;;;;9.35;2.63;;;;;;;;;;4976007;28;20026;-76
2022/04/10 07:09:27;;;;;;;6.43;2.13;;;;;;;;;;4976723;28;20031;-71
2022/04/10 07:11:53;;;;;;;6.40;2.67;;;;;;;;;;4975041;28;20030;-69
2022/04/10 07:14:19;;;;;;;6.60;2.63;;;;;;;;;;4974827;28;20022;-71
2022/04/10 07:16:45;;;;;;;8.15;2.78;;;;;;;;;;4975064;28;20027;-73
2022/04/10 07:19:11;;;;;;;7.15;2.20;;;;;;;;;;4971685;28;20030;-73
2022/04/10 07:24:22;;;;;;;8.20;2.65;;;;;;;;;;4969335;28;20038;-73
2022/04/10 07:26:49;;;;;;;4.65;2.20;;;;;;;;;;4938887;29;20031;-72
2022/04/10 07:29:15;;;;;;;10.80;3.10;;;;;;;;;;4967738;28;20090;-73
2022/04/10 07:31:41;;;;;;;8.27;2.38;;;;;;;;;;4974593;28;20485;-73
2022/04/10 07:34:07;;;;;;;9.02;2.45;;;;;;;;;;4956376;28;20027;-72
2022/04/10 07:36:33;;;;;;;8.30;2.40;;;;;;;;;;4957556;28;20121;-73
2022/04/10 07:39:00;;;;;;;10.80;2.60;;;;;;;;;;4973981;28;20358;-73
2022/04/10 07:41:26;;;;;;;6.45;1.95;;;;;;;;;;4974177;28;20077;-73
2022/04/10 07:43:52;;;;;;;6.30;2.47;;;;;;;;;;4974254;28;20027;-73
2022/04/10 07:49:02;;;;;;;5.18;2.20;;;;;;;;;;4974021;28;20122;-73
2022/04/10 07:51:28;;;;;;;7.30;3.17;;;;;;;;;;4974190;28;20027;-72
2022/04/10 07:53:56;;;;;;;11.38;2.72;;;;;;;;;;4956801;28;20026;-72
2022/04/10 07:56:23;;;;;;;7.88;2.10;;;;;;;;;;4957317;28;20515;-73
2022/04/10 07:58:49;;;;;;;5.38;1.95;;;;;;;;;;4973482;28;20058;-73
2022/04/10 08:01:15;;;;;;;5.80;3.00;;;;;;;;;;4974115;28;20485;-73
2022/04/10 08:03:41;;;;;;;5.70;2.63;;;;;;;;;;4973949;28;20027;-73
2022/04/10 08:06:07;;;;;;;6.30;2.63;;;;;;;;;;4974226;28;20052;-73
2022/04/10 08:08:33;;;;;;;17.00;3.50;;;;;;;;;;4973429;28;20109;-73
2022/04/10 08:10:59;;;;;;;12.43;4.88;;;;;;;;;;4974029;28;20473;-70
2022/04/10 08:13:25;;;;;;;6.82;3.47;;;;;;;;;;4973832;28;20106;-72
2022/04/10 08:15:51;;;;;;;9.13;3.40;;;;;;;;;;4974119;28;20038;-71
2022/04/10 08:18:17;;;;;;;8.55;2.30;;;;;;;;;;4955789;28;20106;-73
2022/04/10 08:20:43;;;;;;;10.75;4.20;;;;;;;;;;4973848;28;20110;-74
2022/04/10 08:23:09;;;;;;;8.05;2.45;;;;;;;;;;4956776;28;20019;-72
2022/04/10 08:25:35;;;;;;;10.95;3.78;;;;;;;;;;4956451;28;20050;-72
2022/04/10 08:28:02;;;;;;;8.77;3.58;;;;;;;;;;4955887;28;20161;-72
2022/04/10 08:30:28;;;;;;;10.75;2.42;;;;;;;;;;4974032;28;20019;-71
2022/04/10 08:32:54;;;;;;;14.25;3.47;;;;;;;;;;4974062;28;20035;-71
2022/04/10 08:35:20;;;;;;;12.30;2.88;;;;;;;;;;4973172;28;20027;-71
2022/04/10 08:37:46;;;;;;;11.48;4.05;;;;;;;;;;4972999;28;20027;-71
2022/04/10 08:40:15;;;;;;;7.93;2.50;;;;;;;;;;4957014;28;20108;-77
2022/04/10 08:42:41;;;;;;;7.03;2.58;;;;;;;;;;4956919;28;20034;-77
2022/04/10 08:45:08;;;;;;;13.10;2.92;;;;;;;;;;4955595;28;20121;-75
2022/04/10 08:47:34;;;;;;;13.45;2.95;;;;;;;;;;4955399;28;20568;-75
2022/04/10 08:50:01;;;;;;;9.77;2.78;;;;;;;;;;4956384;28;20023;-69
2022/04/10 08:52:27;;;;;;;8.95;2.78;;;;;;;;;;4973562;28;20085;-71
2022/04/10 08:54:53;;;;;;;11.35;3.33;;;;;;;;;;4973351;28;20027;-74
2022/04/10 08:57:19;;;;;;;10.10;3.22;;;;;;;;;;4972444;28;20031;-71
2022/04/10 08:59:45;;;;;;;8.82;2.60;;;;;;;;;;4972705;28;20536;-70
2022/04/10 09:02:12;;;;;;;16.05;3.13;;;;;;;;;;4984929;28;20448;-70
2022/04/10 09:04:39;;;;;;;12.63;4.28;;;;;;;;;;4955413;28;20061;-70
2022/04/10 09:07:09;;;;;;;10.55;4.50;;;;;;;;;;4952979;28;20023;-70
2022/04/10 09:09:36;;;;;;;11.25;5.15;;;;;;;;;;4971462;28;20103;-72
2022/04/10 09:12:03;;;;;;;12.27;4.63;;;;;;;;;;4971984;28;20370;-72
2022/04/10 09:14:34;;;;;;;12.60;5.07;;;;;;;;;;4975664;28;20019;-73
2022/04/10 09:17:12;;;;;;;15.68;3.30;;;;;;;;;;4979585;28;20042;-70
2022/04/10 09:19:39;;;;;;;6.38;2.45;;;;;;;;;;4954806;28;20031;-71
2022/04/10 09:22:20;;;;;;;6.93;3.05;;;;;;;;;;4972490;28;20037;-73
2022/04/10 09:25:03;;;;;;;9.27;2.80;;;;;;;;;;4972687;28;20425;-71
2022/04/10 09:27:33;;;;;;;7.20;2.50;;;;;;;;;;4954428;28;20101;-71
2022/04/10 09:30:00;;;;;;;10.10;4.25;;;;;;;;;;4971189;28;20054;-72
2022/04/10 09:32:36;;;;;;;8.25;2.83;;;;;;;;;;4972467;28;20025;-70
2022/04/10 09:35:02;;;;;;;8.75;2.72;;;;;;;;;;4972601;28;20412;-71
2022/04/10 09:37:30;;;;;;;5.32;2.03;;;;;;;;;;4971682;28;20441;-73
2022/04/10 09:40:16;;;;;;;4.45;2.13;;;;;;;;;;4955273;28;20523;-71
2022/04/10 09:42:42;;;;;;;6.05;2.30;;;;;;;;;;4972493;28;20572;-72
2022/04/10 09:45:26;;;;;;;8.95;2.60;;;;;;;;;;4955961;28;20066;-71
2022/04/10 09:47:52;;;;;;;9.20;2.13;;;;;;;;;;4972198;28;20481;-72
2022/04/10 09:50:18;;;;;;;6.57;2.25;;;;;;;;;;4972732;28;20094;-71
2022/04/10 09:52:44;;;;;;;10.82;2.72;;;;;;;;;;4972727;28;20481;-71
2022/04/10 09:55:30;;;;;;;8.95;2.38;;;;;;;;;;4972330;28;20031;-71
2022/04/10 09:57:59;;;;;;;7.05;2.13;;;;;;;;;;4953942;28;20023;-72
2022/04/10 10:00:25;;;;;;;10.65;2.67;;;;;;;;;;4973339;28;20022;-73
2022/04/10 10:02:51;;;;;;;12.85;2.65;;;;;;;;;;4955474;28;20027;-71
2022/04/10 10:05:17;;;;;;;7.95;3.03;;;;;;;;;;4955420;28;20462;-71
2022/04/10 10:07:44;;;;;;;12.52;3.42;;;;;;;;;;4972110;28;20027;-71
2022/04/10 10:10:11;;;;;;;12.98;3.50;;;;;;;;;;4955197;28;20027;-72
2022/04/10 10:12:37;;;;;;;10.75;3.00;;;;;;;;;;4972797;28;20023;-70
2022/04/10 10:15:03;;;;;;;7.28;3.47;;;;;;;;;;4972197;28;20392;-71
2022/04/10 10:17:29;;;;;;;10.68;3.15;;;;;;;;;;4954278;28;20075;-70
2022/04/10 10:19:55;;;;;;;13.85;4.25;;;;;;;;;;4972553;28;20047;-72
2022/04/10 10:22:21;;;;;;;8.90;3.42;;;;;;;;;;4972664;28;20023;-72
2022/04/10 10:24:50;;;;;;;13.23;4.15;;;;;;;;;;4972485;28;20039;-70
2022/04/10 10:27:27;;;;;;;11.00;3.53;;;;;;;;;;4971555;28;20130;-72
2022/04/10 10:30:18;;;;;;;8.02;3.10;;;;;;;;;;4972920;28;20030;-71
2022/04/10 10:32:45;;;;;;;4.35;2.35;;;;;;;;;;4972130;28;20035;-71
2022/04/10 10:35:13;;;;;;;8.23;2.70;;;;;;;;;;4971737;28;20145;-71
2022/04/10 10:37:52;;;;;;;8.70;3.08;;;;;;;;;;4971414;28;20065;-72
2022/04/10 10:40:18;;;;;;;10.10;2.65;;;;;;;;;;4972396;28;20389;-71
2022/04/10 10:42:45;;;;;;;8.43;3.67;;;;;;;;;;4971686;28;20037;-70
2022/04/10 10:45:11;;;;;;;7.88;3.15;;;;;;;;;;4971296;28;20034;-71
2022/04/10 10:47:39;;;;;;;13.35;3.13;;;;;;;;;;4953555;28;20031;-71
2022/04/10 10:50:26;;;;;;;9.65;3.08;;;;;;;;;;4971566;28;20131;-71
2022/04/10 10:53:05;;;;;;;11.43;2.80;;;;;;;;;;4971678;28;20116;-71
2022/04/10 10:55:43;;;;;;;8.75;2.70;;;;;;;;;;4954293;28;20034;-71
2022/04/10 10:58:09;;;;;;;6.25;2.05;;;;;;;;;;4953885;28;20023;-72
2022/04/10 11:00:38;;;;;;;7.82;2.40;;;;;;;;;;4972749;28;20449;-73
2022/04/10 11:03:09;;;;;;;9.70;2.08;;;;;;;;;;4972117;28;20023;-71
2022/04/10 11:05:36;;;;;;;7.07;2.72;;;;;;;;;;4971716;28;20034;-71
2022/04/10 11:08:09;;;;;;;8.90;2.75;;;;;;;;;;4972023;28;20493;-71
2022/04/10 11:10:36;;;;;;;7.78;2.85;;;;;;;;;;4975109;28;20030;-71
2022/04/10 11:13:04;;;;;;;7.30;2.20;;;;;;;;;;4974970;28;20027;-71
2022/04/10 11:15:32;;;;;;;4.35;2.10;;;;;;;;;;4957572;28;20026;-70
2022/04/10 11:18:04;;;;;;;9.35;2.83;;;;;;;;;;4974447;28;20037;-69
2022/04/10 11:20:31;;;;;;;9.18;3.20;;;;;;;;;;4974818;28;20023;-70
2022/04/10 11:23:00;;;;;;;5.85;2.38;;;;;;;;;;4957219;28;20505;-71
2022/04/10 11:25:31;;;;;;;5.28;2.15;;;;;;;;;;4974556;28;20054;-71
2022/04/10 11:27:59;;;;;;;7.35;2.08;;;;;;;;;;4973957;28;20034;-71
2022/04/10 11:30:32;;;;;;;6.80;2.38;;;;;;;;;;4957776;28;20492;-71
2022/04/10 11:32:58;;;;;;;7.25;2.20;;;;;;;;;;4974773;28;20035;-73
2022/04/10 11:35:30;;;;;;;8.25;2.60;;;;;;;;;;4974310;28;20624;-71
2022/04/10 11:38:01;;;;;;;11.27;3.03;;;;;;;;;;4973954;28;20035;-71
2022/04/10 11:40:28;;;;;;;12.77;3.78;;;;;;;;;;4974805;28;20023;-72
2022/04/10 11:42:55;;;;;;;4.80;2.47;;;;;;;;;;4957561;28;20029;-71
2022/04/10 11:45:25;;;;;;;10.20;2.90;;;;;;;;;;4974887;28;20035;-72
2022/04/10 11:47:51;;;;;;;9.32;2.65;;;;;;;;;;4973600;28;20034;-72
2022/04/10 11:50:20;;;;;;;8.18;2.53;;;;;;;;;;4974651;28;20042;-70
2022/04/10 11:52:58;;;;;;;7.68;2.50;;;;;;;;;;4974590;28;20117;-70
2022/04/10 11:55:29;;;;;;;5.60;1.88;;;;;;;;;;4974110;28;20026;-71
2022/04/10 11:57:55;;;;;;;4.75;1.40;;;;;;;;;;4973266;28;20065;-70
2022/04/10 12:00:21;;;;;;;6.35;2.42;;;;;;;;;;4974740;28;20457;-71
2022/04/10 12:02:52;;;;;;;8.38;2.22;;;;;;;;;;4974678;28;20042;-71
2022/04/10 12:05:18;;;;;;;5.00;1.50;;;;;;;;;;4956325;28;20026;-71
2022/04/10 12:07:44;;;;;;;3.75;1.30;;;;;;;;;;4955590;28;20041;-73
2022/04/10 12:10:10;;;;;;;3.85;1.17;;;;;;;;;;4956859;28;20023;-71
2022/04/10 12:12:37;;;;;;;3.03;0.90;;;;;;;;;;4956578;28;20286;-72
2022/04/10 12:15:15;;;;;;;4.97;1.08;;;;;;;;;;4973569;28;20050;-72
2022/04/10 12:17:41;;;;;;;4.20;1.85;;;;;;;;;;4973320;28;20077;-73
2022/04/10 12:20:07;;;;;;;5.50;1.50;;;;;;;;;;4987943;28;20019;-73
2022/04/10 12:22:33;;;;;;;5.90;1.58;;;;;;;;;;4973635;28;20027;-70
2022/04/10 12:24:59;;;;;;;4.57;1.00;;;;;;;;;;4973717;28;20031;-72
2022/04/10 12:27:26;;;;;;;7.18;2.00;;;;;;;;;;4972634;28;20064;-73
2022/04/10 12:29:52;;;;;;;5.18;1.38;;;;;;;;;;4973613;28;20037;-73
2022/04/10 12:32:19;;;;;;;4.55;1.70;;;;;;;;;;4973385;28;20047;-72
2022/04/10 12:34:45;;;;;;;5.78;1.70;;;;;;;;;;4973213;28;20058;-72
2022/04/10 12:37:13;;;;;;;5.40;1.80;;;;;;;;;;4954963;28;20050;-72
2022/04/10 12:39:39;;;;;;;5.95;2.53;;;;;;;;;;4973270;28;20023;-69
2022/04/10 12:42:22;;;;;;;8.82;2.55;;;;;;;;;;4973235;28;20019;-72
2022/04/10 12:44:58;;;;;;;10.23;2.60;;;;;;;;;;4973410;28;20030;-72
2022/04/10 12:47:40;;;;;;;4.55;1.52;;;;;;;;;;4972240;28;20588;-72
2022/04/10 12:50:07;;;;;;;5.88;1.80;;;;;;;;;;4972978;28;20062;-72
2022/04/10 12:52:34;;;;;;;7.82;2.35;;;;;;;;;;4972585;28;20401;-71
2022/04/10 12:55:00;;;;;;;5.63;2.10;;;;;;;;;;4972980;28;20026;-72
2022/04/10 12:57:29;;;;;;;4.78;1.80;;;;;;;;;;4954638;28;20601;-72
2022/04/10 12:59:55;;;;;;;8.93;2.17;;;;;;;;;;4973059;28;20023;-71
2022/04/10 13:02:36;;;;;;;8.18;2.05;;;;;;;;;;4955565;28;20110;-72
2022/04/10 13:05:03;;;;;;;7.35;2.08;;;;;;;;;;4972437;28;20078;-72
2022/04/10 13:07:30;;;;;;;4.38;1.55;;;;;;;;;;4972388;28;20030;-72
2022/04/10 13:10:06;;;;;;;5.55;1.45;;;;;;;;;;4970429;28;20110;-74
2022/04/10 13:12:33;;;;;;;6.90;2.60;;;;;;;;;;4975007;28;20030;-79
2022/04/10 13:14:59;;;;;;;4.93;1.70;;;;;;;;;;4957986;28;20465;-78
2022/04/10 13:17:35;;;;;;;4.05;1.83;;;;;;;;;;4976725;28;20023;-78
2022/04/10 13:20:11;;;;;;;9.05;1.65;;;;;;;;;;4972097;28;20030;-75
2022/04/10 13:22:38;;;;;;;5.88;1.63;;;;;;;;;;4971754;28;20023;-77
2022/04/10 13:25:04;;;;;;;3.63;1.67;;;;;;;;;;4972685;28;20126;-69
2022/04/10 13:27:31;;;;;;;6.07;1.40;;;;;;;;;;4970551;28;20054;-74
2022/04/10 13:29:58;;;;;;;23.30;12.77;;;;;;;;;;4972293;28;20031;-76
2022/04/10 13:32:24;;;;;;;54.75;24.42;;;;;;;;;;4956880;28;20034;-77
2022/04/10 13:34:50;;;;;;;37.83;16.02;;;;;;;;;;4973792;28;20027;-77
2022/04/10 13:37:16;;;;;;;72.00;35.53;;;;;;;;;;4965361;28;20085;-70
2022/04/10 13:39:42;;;;;;;32.53;15.45;;;;;;;;;;4952148;28;20030;-72
2022/04/10 13:42:08;;;;;;;181.10;82.68;;;;;;;;;;4954969;28;20033;-76
2022/04/10 13:44:34;;;;;;;14.07;6.03;;;;;;;;;;4974064;28;20097;-72
2022/04/10 13:47:00;;;;;;;37.67;17.45;;;;;;;;;;4971673;28;20053;-73
2022/04/10 13:49:25;;;;;;;45.05;18.17;;;;;;;;;;4971955;28;20035;-73
2022/04/10 13:51:51;;;;;;;157.70;77.43;;;;;;;;;;4954959;28;20122;-74
2022/04/10 13:54:17;;;;;;;34.75;15.25;;;;;;;;;;4954904;28;20053;-73
2022/04/10 13:56:44;;;;;;;28.38;12.55;;;;;;;;;;4973030;28;20048;-75
2022/04/10 13:59:09;;;;;;;15.57;7.00;;;;;;;;;;4972458;28;20101;-76
2022/04/10 14:01:36;;;;;;;14.25;5.82;;;;;;;;;;4954592;28;20057;-75
2022/04/10 14:04:03;;;;;;;9.82;3.83;;;;;;;;;;4972960;28;20058;-77
2022/04/10 14:06:29;;;;;;;10.13;3.53;;;;;;;;;;4974726;28;20023;-78
2022/04/10 14:08:58;;;;;;;22.25;10.48;;;;;;;;;;4954381;28;20035;-77
2022/04/10 14:11:24;;;;;;;7.00;3.47;;;;;;;;;;4955453;28;20049;-73
2022/04/10 14:13:50;;;;;;;182.43;98.72;;;;;;;;;;4971752;28;20118;-73
2022/04/10 14:16:16;;;;;;;52.75;25.83;;;;;;;;;;4971662;28;20531;-71
2022/04/10 14:18:42;;;;;;;19.77;8.80;;;;;;;;;;4971028;28;20027;-74
2022/04/10 14:21:08;;;;;;;33.58;17.70;;;;;;;;;;4971575;28;20078;-74
2022/04/10 14:23:35;;;;;;;12.35;6.00;;;;;;;;;;4954312;28;20027;-73
2022/04/10 14:26:01;;;;;;;4.72;1.88;;;;;;;;;;4971761;28;20027;-72
2022/04/10 14:28:27;;;;;;;23.35;12.45;;;;;;;;;;4971367;28;20105;-73
2022/04/10 14:30:53;;;;;;;11.65;5.10;;;;;;;;;;4971265;28;20019;-74
2022/04/10 14:33:19;;;;;;;37.10;19.25;;;;;;;;;;4971837;28;20083;-74
2022/04/10 14:35:45;;;;;;;50.63;24.85;;;;;;;;;;4971707;28;20026;-74
2022/04/10 14:38:13;;;;;;;37.08;18.25;;;;;;;;;;4971655;28;20022;-73
2022/04/10 14:40:40;;;;;;;18.55;9.68;;;;;;;;;;4972851;28;20015;-73
2022/04/10 14:43:06;;;;;;;17.85;7.68;;;;;;;;;;4973706;28;20033;-73
2022/04/10 14:45:32;;;;;;;10.93;5.28;;;;;;;;;;4975216;28;20404;-76